Time;durP1;ratioP1;P1;durP2;ratioP2;P2;SDS_P1;SDS_P2;PMS_P1;PMS_P2;Temp;Humidity;BMP_temperature;BMP_pressure;BME280_temperature;BME280_humidity;BME280_pressure;Samples;Min_cycle;Max_cycle;Signal;HPM_P1;HPM_P2
2023/06/19 00:01:31;;;;;;;6.20;5.83;;;25.50;54.30;;;;;;5004793;28;20431;-76
2023/06/19 00:03:57;;;;;;;6.33;6.13;;;25.50;54.50;;;;;;4994342;28;20193;-76
2023/06/19 00:06:23;;;;;;;6.50;6.30;;;25.40;54.90;;;;;;4996390;28;20349;-76
2023/06/19 00:08:48;;;;;;;6.00;5.80;;;25.20;55.30;;;;;;4997167;28;20189;-77
2023/06/19 00:11:14;;;;;;;7.10;6.80;;;25.10;55.70;;;;;;4997603;28;20592;-76
2023/06/19 00:13:39;;;;;;;7.47;7.10;;;25.00;55.90;;;;;;4976469;28;20185;-76
2023/06/19 00:16:05;;;;;;;7.00;6.80;;;24.90;56.30;;;;;;4996185;28;20274;-75
2023/06/19 00:18:30;;;;;;;7.70;7.30;;;24.80;56.40;;;;;;4997172;28;20551;-76
2023/06/19 00:20:56;;;;;;;6.70;6.40;;;24.80;56.80;;;;;;4996447;28;20566;-76
2023/06/19 00:23:25;;;;;;;8.27;7.10;;;24.80;56.90;;;;;;4983690;28;20200;-77
2023/06/19 00:25:50;;;;;;;7.00;6.80;;;24.80;56.90;;;;;;4980216;28;20877;-77
2023/06/19 00:28:19;;;;;;;7.20;6.90;;;24.80;57.00;;;;;;4979665;28;20432;-76
2023/06/19 00:30:45;;;;;;;7.40;7.10;;;24.60;57.30;;;;;;4984190;28;21000;-77
2023/06/19 00:33:11;;;;;;;7.53;7.23;;;24.50;58.10;;;;;;5006546;28;20430;-77
2023/06/19 00:35:36;;;;;;;7.60;7.20;;;24.40;59.30;;;;;;4974938;28;20216;-77
2023/06/19 00:38:02;;;;;;;6.83;6.63;;;24.40;59.40;;;;;;5005333;28;20215;-77
2023/06/19 00:40:31;;;;;;;6.70;6.47;;;24.40;59.10;;;;;;4999929;28;20204;-77
2023/06/19 00:42:57;;;;;;;7.10;6.80;;;24.30;59.20;;;;;;5012938;28;20759;-76
2023/06/19 00:45:26;;;;;;;8.20;7.43;;;24.20;59.60;;;;;;4998003;28;20952;-76
2023/06/19 00:47:53;;;;;;;8.17;7.77;;;24.20;67.30;;;;;;5004538;28;20826;-76
2023/06/19 00:50:19;;;;;;;8.40;7.80;;;24.00;71.80;;;;;;5003253;28;20447;-77
2023/06/19 00:52:45;;;;;;;7.70;7.30;;;23.80;75.90;;;;;;5008887;28;20458;-76
2023/06/19 00:55:11;;;;;;;7.60;7.30;;;23.70;79.70;;;;;;5002714;28;20962;-77
2023/06/19 00:57:39;;;;;;;8.67;8.07;;;23.70;82.70;;;;;;5016538;28;20252;-77
2023/06/19 01:00:07;;;;;;;8.20;7.80;;;23.70;86.50;;;;;;4982889;28;20505;-77
2023/06/19 01:02:32;;;;;;;8.23;7.87;;;23.60;90.00;;;;;;5018809;28;20419;-77
2023/06/19 01:04:58;;;;;;;8.13;7.53;;;23.40;90.60;;;;;;5001243;28;20814;-76
2023/06/19 01:07:50;;;;;;;8.80;8.37;;;23.30;91.10;;;;;;5002045;28;20188;-78
2023/06/19 01:10:24;;;;;;;7.90;7.37;;;23.20;92.90;;;;;;4973575;28;20410;-76
2023/06/19 01:12:56;;;;;;;8.50;8.00;;;23.10;94.80;;;;;;5006858;28;20471;-77
2023/06/19 01:15:23;;;;;;;7.77;7.50;;;23.00;96.20;;;;;;5002444;28;20455;-76
2023/06/19 01:17:49;;;;;;;7.87;7.50;;;23.00;97.20;;;;;;4998722;28;20439;-77
2023/06/19 01:20:15;;;;;;;8.20;7.80;;;22.90;99.40;;;;;;5005729;28;20436;-77
2023/06/19 01:22:43;;;;;;;8.80;8.30;;;22.90;99.90;;;;;;5001198;28;20455;-76
2023/06/19 01:25:13;;;;;;;8.00;7.70;;;22.90;99.90;;;;;;4996241;28;20505;-76
2023/06/19 01:27:40;;;;;;;9.10;8.50;;;22.80;99.90;;;;;;5003332;28;20450;-76
2023/06/19 01:30:06;;;;;;;8.70;8.30;;;22.70;99.90;;;;;;4993753;28;20471;-76
2023/06/19 01:32:38;;;;;;;8.50;7.83;;;22.60;99.90;;;;;;4999869;28;20451;-76
2023/06/19 01:35:08;;;;;;;8.10;7.70;;;22.60;99.90;;;;;;4999539;28;20463;-77
2023/06/19 01:37:33;;;;;;;8.80;8.30;;;22.50;99.90;;;;;;4980397;28;21036;-77
2023/06/19 01:40:01;;;;;;;8.43;8.13;;;22.50;99.90;;;;;;4995488;28;20532;-76
2023/06/19 01:42:27;;;;;;;8.27;7.97;;;22.50;99.90;;;;;;5003711;28;20562;-76
2023/06/19 01:44:53;;;;;;;8.30;8.00;;;22.50;99.90;;;;;;4997266;28;20443;-76
2023/06/19 01:47:20;;;;;;;8.20;7.90;;;22.40;99.90;;;;;;4991920;28;20216;-76
2023/06/19 01:49:49;;;;;;;8.70;8.20;;;22.40;99.90;;;;;;5004409;28;20443;-75
2023/06/19 01:52:14;;;;;;;8.73;8.23;;;22.40;99.90;;;;;;4999163;28;20472;-77
2023/06/19 01:54:40;;;;;;;8.80;8.40;;;22.20;99.90;;;;;;4983754;28;20997;-76
2023/06/19 01:57:06;;;;;;;8.30;7.90;;;22.10;99.90;;;;;;4995224;28;20926;-76
2023/06/19 01:59:32;;;;;;;9.43;8.83;;;22.10;99.90;;;;;;4999569;28;20207;-76
2023/06/19 02:01:57;;;;;;;9.60;9.10;;;22.10;99.90;;;;;;5003163;28;20435;-76
2023/06/19 02:04:23;;;;;;;9.57;9.07;;;22.00;99.90;;;;;;4998316;28;20300;-75
2023/06/19 02:06:48;;;;;;;8.47;7.97;;;22.10;99.90;;;;;;5000185;28;20647;-76
2023/06/19 02:09:14;;;;;;;9.13;8.73;;;22.20;99.90;;;;;;4996547;28;20325;-76
2023/06/19 02:11:40;;;;;;;8.80;8.30;;;21.90;99.90;;;;;;4998732;28;20188;-75
2023/06/19 02:14:05;;;;;;;8.27;7.97;;;21.80;99.90;;;;;;4998023;28;20236;-76
2023/06/19 02:16:31;;;;;;;9.30;8.80;;;21.80;99.90;;;;;;4992780;28;20279;-76
2023/06/19 02:18:56;;;;;;;9.33;8.57;;;21.70;99.90;;;;;;5003622;28;20195;-76
2023/06/19 02:21:22;;;;;;;8.47;8.07;;;21.70;99.90;;;;;;4999029;28;20180;-75
2023/06/19 02:23:48;;;;;;;8.03;7.60;;;21.70;99.90;;;;;;4996084;28;20449;-77
2023/06/19 02:26:14;;;;;;;8.47;7.77;;;21.70;99.90;;;;;;5003684;28;20804;-75
2023/06/19 02:28:39;;;;;;;9.10;8.60;;;21.60;99.90;;;;;;4998393;28;20251;-76
2023/06/19 02:31:05;;;;;;;8.80;8.30;;;21.70;99.90;;;;;;4983674;28;20225;-75
2023/06/19 02:33:32;;;;;;;9.10;8.67;;;21.60;99.90;;;;;;4985745;28;20177;-75
2023/06/19 02:35:58;;;;;;;8.60;8.20;;;21.60;99.90;;;;;;4981668;28;20284;-75
2023/06/19 02:38:25;;;;;;;8.47;7.97;;;21.70;99.90;;;;;;4988995;28;20442;-76
2023/06/19 02:40:50;;;;;;;9.23;8.63;;;21.80;99.90;;;;;;4988235;28;20445;-76
2023/06/19 02:43:16;;;;;;;7.57;7.27;;;21.80;99.90;;;;;;4976027;28;20780;-76
2023/06/19 02:45:42;;;;;;;7.83;7.23;;;21.90;99.90;;;;;;4993836;28;20232;-76
2023/06/19 02:48:07;;;;;;;7.43;7.13;;;22.10;99.90;;;;;;4990486;28;20189;-75
2023/06/19 02:50:33;;;;;;;7.30;7.00;;;22.20;99.90;;;;;;4988078;28;20190;-76
2023/06/19 02:52:58;;;;;;;8.90;8.33;;;22.40;99.90;;;;;;4992952;28;20185;-76
2023/06/19 02:55:24;;;;;;;8.23;7.73;;;22.50;99.90;;;;;;4991396;28;20477;-75
2023/06/19 02:57:49;;;;;;;7.60;7.30;;;22.50;99.90;;;;;;4994587;28;20260;-75
2023/06/19 03:00:15;;;;;;;8.40;7.80;;;22.70;99.90;;;;;;4984910;28;20204;-75
2023/06/19 03:02:41;;;;;;;7.50;7.20;;;22.80;99.90;;;;;;4994184;28;20696;-74
2023/06/19 03:05:07;;;;;;;7.80;7.40;;;22.80;99.90;;;;;;4984196;28;20328;-76
2023/06/19 03:07:33;;;;;;;7.13;6.83;;;22.90;99.90;;;;;;4990564;28;20511;-75
2023/06/19 03:09:58;;;;;;;6.53;6.23;;;22.90;99.90;;;;;;4982006;28;20584;-76
2023/06/19 03:12:24;;;;;;;6.73;6.50;;;23.00;99.90;;;;;;4987500;28;20184;-75
2023/06/19 03:14:49;;;;;;;7.10;6.80;;;22.90;99.90;;;;;;4981158;28;20214;-77
2023/06/19 03:17:15;;;;;;;6.40;6.20;;;22.90;99.90;;;;;;4986939;28;20827;-76
2023/06/19 03:19:40;;;;;;;5.63;5.43;;;22.90;99.90;;;;;;4982685;28;20674;-76
2023/06/19 03:22:06;;;;;;;6.23;6.03;;;22.90;99.90;;;;;;4981818;28;20223;-76
2023/06/19 03:24:31;;;;;;;5.43;5.33;;;22.80;99.90;;;;;;4985885;28;20197;-76
2023/06/19 03:26:57;;;;;;;5.73;5.33;;;22.80;99.90;;;;;;4988867;28;20704;-76
2023/06/19 03:29:22;;;;;;;5.47;5.20;;;22.80;99.90;;;;;;4982710;28;20274;-76
2023/06/19 03:31:48;;;;;;;6.10;5.70;;;22.80;99.90;;;;;;4979620;28;20197;-76
2023/06/19 03:34:14;;;;;;;5.80;5.40;;;22.80;99.90;;;;;;4975159;28;20220;-76
2023/06/19 03:36:39;;;;;;;5.70;5.50;;;22.90;99.90;;;;;;5008012;28;20554;-76
2023/06/19 03:39:05;;;;;;;5.03;4.93;;;22.80;99.90;;;;;;4992736;28;20258;-76
2023/06/19 03:41:31;;;;;;;4.93;4.83;;;22.80;99.90;;;;;;4983862;28;20188;-75
2023/06/19 03:43:56;;;;;;;5.30;5.10;;;22.70;99.90;;;;;;4993898;28;20193;-75
2023/06/19 03:46:22;;;;;;;4.50;4.40;;;22.60;99.90;;;;;;4999991;28;20224;-76
2023/06/19 03:48:47;;;;;;;4.80;4.70;;;22.60;99.90;;;;;;4995178;28;20197;-75
2023/06/19 03:51:13;;;;;;;4.63;4.53;;;22.60;99.90;;;;;;4997759;28;20192;-76
2023/06/19 03:53:38;;;;;;;5.17;5.07;;;22.60;99.90;;;;;;4994075;28;20266;-76
2023/06/19 03:56:04;;;;;;;5.13;5.03;;;22.60;99.90;;;;;;5001534;28;20213;-75
2023/06/19 03:58:29;;;;;;;4.70;4.50;;;22.60;99.90;;;;;;4995709;28;20263;-77
2023/06/19 04:00:55;;;;;;;5.07;4.87;;;22.40;99.90;;;;;;4994588;28;20857;-77
2023/06/19 04:03:21;;;;;;;5.77;5.53;;;22.40;99.90;;;;;;4996348;28;20251;-76
2023/06/19 04:05:46;;;;;;;4.43;4.37;;;22.30;99.90;;;;;;5000139;28;20240;-76
2023/06/19 04:08:12;;;;;;;4.50;4.40;;;22.30;99.90;;;;;;5000407;28;20625;-76
2023/06/19 04:10:37;;;;;;;4.77;4.67;;;22.30;99.90;;;;;;4997001;28;20224;-76
2023/06/19 04:13:03;;;;;;;4.37;4.27;;;22.40;99.90;;;;;;4998845;28;20185;-77
2023/06/19 04:15:29;;;;;;;4.93;4.73;;;22.40;99.90;;;;;;4994305;28;20240;-76
2023/06/19 04:17:54;;;;;;;5.40;5.17;;;22.40;99.90;;;;;;4981867;28;20979;-77
2023/06/19 04:20:20;;;;;;;5.47;5.27;;;22.30;99.90;;;;;;4992154;28;20553;-77
2023/06/19 04:22:46;;;;;;;3.70;3.70;;;22.30;99.90;;;;;;4997208;28;20553;-77
2023/06/19 04:25:11;;;;;;;4.00;4.00;;;22.30;99.90;;;;;;4979854;28;20525;-76
2023/06/19 04:27:37;;;;;;;4.00;3.90;;;22.30;99.90;;;;;;4999506;28;20199;-76
2023/06/19 04:30:04;;;;;;;4.00;3.90;;;22.40;99.90;;;;;;4998107;28;20327;-76
2023/06/19 04:32:30;;;;;;;4.13;3.90;;;22.10;99.90;;;;;;4982721;28;20554;-75
2023/06/19 04:34:55;;;;;;;4.30;4.20;;;22.10;99.90;;;;;;4981497;28;20522;-77
2023/06/19 04:37:21;;;;;;;4.20;4.00;;;22.10;99.90;;;;;;4986588;28;20439;-75
2023/06/19 04:39:47;;;;;;;4.00;3.70;;;22.10;99.90;;;;;;5003364;28;20207;-75
2023/06/19 04:42:20;;;;;;;3.93;3.93;;;22.10;99.90;;;;;;4996306;28;20532;-76
2023/06/19 04:44:49;;;;;;;3.83;3.73;;;22.20;99.90;;;;;;5006315;28;20189;-76
2023/06/19 04:47:17;;;;;;;3.90;3.80;;;22.30;99.90;;;;;;5000803;28;20424;-75
2023/06/19 04:49:43;;;;;;;3.93;3.70;;;22.30;99.90;;;;;;4978246;28;20837;-76
2023/06/19 04:52:08;;;;;;;4.33;4.23;;;22.30;99.90;;;;;;5001790;28;20443;-76
2023/06/19 04:54:34;;;;;;;3.20;3.20;;;22.40;99.90;;;;;;5004438;28;20322;-76
2023/06/19 04:57:00;;;;;;;3.70;3.60;;;22.30;99.90;;;;;;4976269;28;20192;-77
2023/06/19 04:59:26;;;;;;;3.50;3.40;;;22.40;99.90;;;;;;5004134;28;20199;-77
2023/06/19 05:01:53;;;;;;;3.60;3.40;;;22.60;99.90;;;;;;5000736;28;20208;-77
2023/06/19 05:04:22;;;;;;;4.23;3.83;;;22.80;99.90;;;;;;5003749;28;20420;-77
2023/06/19 05:06:51;;;;;;;3.70;3.57;;;23.00;99.90;;;;;;4980677;28;20797;-76
2023/06/19 05:09:17;;;;;;;3.13;3.03;;;23.10;99.90;;;;;;4995130;28;20846;-76
2023/06/19 05:11:42;;;;;;;6.20;3.80;;;22.80;99.90;;;;;;4996483;28;20519;-78
2023/06/19 05:14:08;;;;;;;3.33;3.23;;;22.80;99.90;;;;;;5002246;28;20212;-76
2023/06/19 05:16:34;;;;;;;3.40;3.30;;;23.10;99.90;;;;;;4996162;28;20439;-76
2023/06/19 05:19:00;;;;;;;2.80;2.80;;;23.40;99.90;;;;;;4993983;28;20535;-76
2023/06/19 05:21:26;;;;;;;3.23;3.23;;;23.30;99.90;;;;;;4977952;28;20443;-77
2023/06/19 05:23:52;;;;;;;3.70;3.60;;;23.20;99.90;;;;;;4995449;28;20196;-76
2023/06/19 05:26:22;;;;;;;3.37;3.27;;;23.10;99.90;;;;;;4998372;28;20181;-77
2023/06/19 05:28:49;;;;;;;4.53;4.13;;;22.90;99.90;;;;;;4976002;28;20425;-76
2023/06/19 05:31:14;;;;;;;3.90;3.80;;;22.80;99.90;;;;;;4995497;28;21028;-76
2023/06/19 05:33:41;;;;;;;3.57;3.47;;;22.60;99.90;;;;;;4994381;28;20527;-76
2023/06/19 05:36:07;;;;;;;3.60;3.50;;;22.50;99.90;;;;;;5001144;28;20207;-76
2023/06/19 05:38:32;;;;;;;3.43;3.30;;;22.40;99.90;;;;;;4996373;28;20965;-77
2023/06/19 05:40:59;;;;;;;3.40;3.40;;;22.20;99.90;;;;;;4997089;28;20880;-76
2023/06/19 05:43:25;;;;;;;4.20;3.90;;;22.30;99.90;;;;;;4996857;28;20848;-76
2023/06/19 05:45:51;;;;;;;4.10;3.80;;;22.30;99.90;;;;;;5000610;28;20467;-77
2023/06/19 05:48:17;;;;;;;8.47;3.83;;;22.30;99.90;;;;;;4995186;28;20185;-75
2023/06/19 05:50:42;;;;;;;3.00;3.00;;;22.30;99.90;;;;;;4984444;28;20519;-76
2023/06/19 05:53:08;;;;;;;3.60;3.60;;;22.40;99.90;;;;;;4997285;28;20199;-77
2023/06/19 05:55:34;;;;;;;3.67;3.57;;;22.60;99.90;;;;;;5008438;28;20504;-77
2023/06/19 05:58:00;;;;;;;4.00;3.90;;;22.60;99.90;;;;;;4984120;28;20180;-75
2023/06/19 06:00:26;;;;;;;3.37;3.30;;;22.80;99.90;;;;;;4992159;28;20250;-76
2023/06/19 06:02:51;;;;;;;3.60;3.53;;;22.90;99.90;;;;;;4981639;28;20441;-77
2023/06/19 06:05:20;;;;;;;2.97;2.87;;;22.90;99.90;;;;;;5000843;28;20330;-76
2023/06/19 06:07:46;;;;;;;3.23;3.23;;;22.80;99.90;;;;;;4980624;28;20189;-76
2023/06/19 06:10:11;;;;;;;3.23;3.23;;;22.70;99.90;;;;;;4979950;28;20864;-76
2023/06/19 06:12:37;;;;;;;3.30;3.30;;;22.70;99.90;;;;;;4999799;28;20668;-77
2023/06/19 06:15:04;;;;;;;3.27;3.17;;;22.60;99.90;;;;;;4992795;28;20209;-77
2023/06/19 06:17:30;;;;;;;3.50;3.40;;;22.80;99.90;;;;;;4994988;28;20676;-76
2023/06/19 06:19:55;;;;;;;4.20;3.93;;;23.00;99.90;;;;;;4995264;28;20772;-76
2023/06/19 06:22:21;;;;;;;3.33;3.13;;;23.10;99.90;;;;;;5000376;28;20216;-76
2023/06/19 06:24:46;;;;;;;3.27;3.17;;;23.20;99.90;;;;;;4982463;28;20189;-76
2023/06/19 06:27:13;;;;;;;4.23;4.03;;;23.40;99.90;;;;;;4999698;28;20276;-76
2023/06/19 06:29:39;;;;;;;3.20;3.10;;;23.60;99.90;;;;;;4997645;28;20192;-76
2023/06/19 06:32:06;;;;;;;3.00;2.90;;;23.60;99.90;;;;;;5001649;28;20673;-77
2023/06/19 06:34:35;;;;;;;3.00;2.80;;;23.70;99.90;;;;;;4975682;28;20503;-76
2023/06/19 06:37:01;;;;;;;2.63;2.63;;;23.70;99.90;;;;;;4983259;28;20519;-77
2023/06/19 06:39:27;;;;;;;2.77;2.77;;;23.80;99.90;;;;;;4994722;28;20947;-76
2023/06/19 06:41:53;;;;;;;2.57;2.57;;;23.70;99.90;;;;;;4996889;28;20823;-77
2023/06/19 06:44:18;;;;;;;3.40;3.20;;;23.80;99.90;;;;;;4994202;28;20226;-77
2023/06/19 06:46:44;;;;;;;2.63;2.63;;;23.90;99.90;;;;;;4998406;28;20386;-78
2023/06/19 06:49:09;;;;;;;3.03;3.03;;;24.10;99.90;;;;;;4996640;28;20246;-76
2023/06/19 06:51:35;;;;;;;3.77;3.67;;;24.00;99.90;;;;;;4999239;28;20191;-77
2023/06/19 06:54:00;;;;;;;3.10;3.10;;;23.80;99.90;;;;;;4976513;28;20184;-78
2023/06/19 06:56:26;;;;;;;3.70;3.60;;;23.80;99.90;;;;;;4996476;28;21152;-76
2023/06/19 06:58:51;;;;;;;4.40;4.20;;;23.70;99.90;;;;;;4992254;28;20232;-76
2023/06/19 07:01:17;;;;;;;3.27;3.27;;;23.60;99.90;;;;;;4997267;28;20184;-77
2023/06/19 07:03:43;;;;;;;3.13;3.13;;;23.60;99.90;;;;;;4971344;28;20197;-76
2023/06/19 07:06:08;;;;;;;3.43;3.33;;;23.60;99.90;;;;;;4980716;28;20252;-76
2023/06/19 07:08:34;;;;;;;2.73;2.73;;;23.40;99.90;;;;;;4996722;28;20189;-76
2023/06/19 07:10:59;;;;;;;3.33;3.33;;;23.20;99.90;;;;;;4996695;28;20188;-77
2023/06/19 07:13:25;;;;;;;3.30;3.30;;;23.20;99.90;;;;;;4991452;28;20538;-77
2023/06/19 07:15:51;;;;;;;3.30;3.30;;;23.30;99.90;;;;;;4998550;28;20667;-78
2023/06/19 07:18:16;;;;;;;3.53;3.43;;;23.30;99.90;;;;;;4988850;28;20288;-76
2023/06/19 07:20:42;;;;;;;3.47;3.37;;;23.50;99.90;;;;;;5004398;28;20230;-77
2023/06/19 07:23:10;;;;;;;3.60;3.40;;;23.60;99.90;;;;;;4995843;28;20216;-76
2023/06/19 07:25:35;;;;;;;3.93;3.60;;;23.40;99.90;;;;;;5000843;28;20188;-76
2023/06/19 07:28:01;;;;;;;3.50;3.40;;;23.20;99.90;;;;;;4998600;28;20434;-76
2023/06/19 07:30:27;;;;;;;4.00;3.57;;;23.10;99.90;;;;;;4997183;28;20760;-77
2023/06/19 07:32:53;;;;;;;2.93;2.83;;;22.90;99.90;;;;;;4987986;28;20219;-77
2023/06/19 07:35:18;;;;;;;3.97;3.87;;;22.80;99.90;;;;;;4965998;28;20606;-77
2023/06/19 07:37:44;;;;;;;7.37;3.47;;;22.80;99.90;;;;;;4983152;28;20344;-77
2023/06/19 07:40:11;;;;;;;4.10;4.00;;;22.60;99.90;;;;;;4986240;28;20583;-77
2023/06/19 07:42:36;;;;;;;4.03;3.50;;;22.60;99.90;;;;;;4996414;28;20792;-77
2023/06/19 07:45:03;;;;;;;3.67;3.40;;;22.60;99.90;;;;;;4992329;28;20452;-76
2023/06/19 07:47:28;;;;;;;3.30;3.20;;;22.80;99.90;;;;;;4995265;28;20189;-77
2023/06/19 07:49:54;;;;;;;3.20;3.20;;;23.00;99.90;;;;;;4991183;28;20454;-77
2023/06/19 07:52:20;;;;;;;3.63;3.60;;;23.40;99.90;;;;;;4995719;28;20215;-77
2023/06/19 07:54:52;;;;;;;4.00;3.80;;;23.50;99.90;;;;;;4988127;28;20566;-77
2023/06/19 07:57:17;;;;;;;4.43;3.80;;;23.70;99.90;;;;;;4995844;28;20186;-77
2023/06/19 07:59:44;;;;;;;3.67;3.57;;;24.00;99.90;;;;;;4988690;28;20443;-77
2023/06/19 08:02:10;;;;;;;4.20;3.90;;;24.40;99.90;;;;;;5000085;28;20389;-77
2023/06/19 08:04:36;;;;;;;3.40;3.30;;;24.60;99.90;;;;;;4991767;28;20432;-77
2023/06/19 08:07:01;;;;;;;4.27;3.97;;;24.60;99.90;;;;;;4994552;28;20251;-76
2023/06/19 08:09:27;;;;;;;3.10;3.10;;;24.70;99.90;;;;;;4973116;28;20193;-77
2023/06/19 08:11:53;;;;;;;3.37;2.90;;;24.80;99.90;;;;;;4992678;28;20418;-76
2023/06/19 08:14:18;;;;;;;3.73;3.47;;;24.60;99.90;;;;;;4979541;28;20204;-77
2023/06/19 08:16:44;;;;;;;4.13;3.80;;;24.50;99.90;;;;;;5001924;28;20207;-78
2023/06/19 08:19:11;;;;;;;3.67;3.47;;;23.70;99.90;;;;;;4997503;28;20593;-77
2023/06/19 08:21:36;;;;;;;3.20;3.00;;;23.30;99.90;;;;;;4989762;28;20518;-76
2023/06/19 08:24:02;;;;;;;2.83;2.63;;;23.20;99.90;;;;;;4995542;28;20448;-77
2023/06/19 08:26:28;;;;;;;2.60;2.50;;;23.20;99.90;;;;;;4998012;28;20202;-76
2023/06/19 08:28:54;;;;;;;3.87;2.77;;;23.30;99.90;;;;;;4996506;28;20511;-79
2023/06/19 08:31:21;;;;;;;2.93;2.83;;;23.40;99.90;;;;;;4997882;28;21006;-77
2023/06/19 08:33:50;;;;;;;2.77;2.67;;;24.10;99.90;;;;;;4991996;28;20229;-78
2023/06/19 08:36:16;;;;;;;2.50;2.40;;;24.80;99.90;;;;;;4994093;28;20464;-77
2023/06/19 08:38:41;;;;;;;3.00;2.90;;;25.50;99.90;;;;;;4997254;28;20447;-79
2023/06/19 08:41:07;;;;;;;2.77;2.63;;;26.10;99.90;;;;;;4991664;28;20193;-77
2023/06/19 08:43:32;;;;;;;2.73;2.63;;;26.60;99.90;;;;;;4979229;28;20243;-77
2023/06/19 08:46:10;;;;;;;2.17;2.17;;;27.00;99.10;;;;;;4997826;28;20350;-77
2023/06/19 08:48:37;;;;;;;3.10;3.03;;;27.20;97.50;;;;;;4997560;28;20187;-77
2023/06/19 08:51:04;;;;;;;2.47;2.47;;;27.60;96.70;;;;;;4979710;28;20439;-78
2023/06/19 08:53:34;;;;;;;3.40;3.03;;;27.70;94.40;;;;;;4977125;28;20983;-78
2023/06/19 08:56:00;;;;;;;2.87;2.77;;;27.90;93.90;;;;;;4990424;28;20475;-77
2023/06/19 08:58:26;;;;;;;3.60;3.37;;;27.90;92.80;;;;;;4985193;28;20451;-78
2023/06/19 09:00:51;;;;;;;3.80;3.60;;;27.90;92.10;;;;;;4976595;28;20238;-77
2023/06/19 09:03:23;;;;;;;3.80;3.60;;;27.10;92.80;;;;;;4995290;28;20931;-78
2023/06/19 09:05:50;;;;;;;3.13;2.93;;;27.20;92.90;;;;;;4985524;28;20533;-77
2023/06/19 09:08:16;;;;;;;3.27;3.00;;;27.20;92.90;;;;;;4995808;28;20808;-76
2023/06/19 09:10:43;;;;;;;3.77;3.57;;;27.20;92.70;;;;;;4994531;28;20796;-76
2023/06/19 09:13:09;;;;;;;3.27;3.07;;;27.10;92.10;;;;;;4998060;28;20420;-76
2023/06/19 09:15:36;;;;;;;4.00;4.00;;;27.30;92.20;;;;;;4995737;28;21035;-76
2023/06/19 09:18:10;;;;;;;3.43;3.23;;;27.10;91.80;;;;;;4975824;28;20343;-76
2023/06/19 09:20:44;;;;;;;2.77;2.67;;;27.10;92.20;;;;;;4997092;28;20475;-76
2023/06/19 09:23:11;;;;;;;3.93;3.73;;;27.40;91.90;;;;;;4983263;28;20549;-77
2023/06/19 09:25:52;;;;;;;3.67;3.33;;;27.20;91.60;;;;;;4992003;28;20439;-78
2023/06/19 09:28:22;;;;;;;3.80;3.77;;;27.30;92.00;;;;;;5003217;28;20467;-78
2023/06/19 09:31:06;;;;;;;3.13;3.00;;;27.80;91.10;;;;;;4979858;28;20462;-76
2023/06/19 09:33:33;;;;;;;3.47;3.37;;;28.60;88.20;;;;;;4986974;28;20477;-76
2023/06/19 09:36:01;;;;;;;3.13;3.03;;;28.90;84.90;;;;;;4990166;28;20575;-77
2023/06/19 09:38:32;;;;;;;3.00;3.00;;;30.20;81.80;;;;;;4994171;28;20431;-77
2023/06/19 09:41:01;;;;;;;3.60;3.40;;;30.90;75.00;;;;;;4981825;28;20460;-77
2023/06/19 09:43:42;;;;;;;3.73;3.60;;;30.70;71.60;;;;;;4994303;28;20882;-77
2023/06/19 09:46:09;;;;;;;3.23;3.10;;;30.10;72.10;;;;;;4984279;28;20951;-77
2023/06/19 09:48:40;;;;;;;3.43;3.43;;;30.50;70.70;;;;;;4995174;28;20427;-76
2023/06/19 09:51:20;;;;;;;3.00;2.90;;;30.70;69.40;;;;;;4984643;28;20452;-78
2023/06/19 09:53:47;;;;;;;3.97;3.80;;;31.30;67.10;;;;;;4994052;28;20522;-77
2023/06/19 09:56:21;;;;;;;3.30;3.30;;;31.30;64.20;;;;;;4988461;28;20498;-77
2023/06/19 09:58:49;;;;;;;4.03;3.73;;;31.30;63.70;;;;;;4990842;28;20834;-78
2023/06/19 10:01:18;;;;;;;4.10;3.70;;;31.20;63.60;;;;;;4988589;28;20958;-78
2023/06/19 10:03:44;;;;;;;3.90;3.80;;;30.80;62.20;;;;;;4993242;28;20507;-78
2023/06/19 10:06:15;;;;;;;3.90;3.80;;;30.80;61.80;;;;;;4991511;28;20429;-78
2023/06/19 10:08:43;;;;;;;3.97;3.73;;;30.60;61.90;;;;;;4994455;28;20432;-77
2023/06/19 10:11:10;;;;;;;3.83;3.80;;;30.80;60.20;;;;;;4989982;28;20440;-76
2023/06/19 10:13:41;;;;;;;4.37;4.07;;;30.50;61.60;;;;;;4987497;28;20962;-77
2023/06/19 10:16:18;;;;;;;4.23;4.03;;;29.80;61.80;;;;;;4983683;28;20550;-78
2023/06/19 10:18:47;;;;;;;3.67;3.67;;;29.70;62.10;;;;;;4992143;28;20919;-76
2023/06/19 10:21:20;;;;;;;4.43;4.13;;;29.80;62.40;;;;;;4984221;28;20535;-77
2023/06/19 10:23:56;;;;;;;4.73;4.40;;;29.30;62.60;;;;;;4980135;28;20436;-77
2023/06/19 10:26:33;;;;;;;4.50;4.30;;;29.70;63.20;;;;;;4980559;28;20439;-77
2023/06/19 10:28:59;;;;;;;3.80;3.60;;;30.20;61.90;;;;;;4990150;28;20430;-78
2023/06/19 10:31:25;;;;;;;3.53;3.53;;;31.10;60.20;;;;;;4989000;28;20456;-78
2023/06/19 10:33:50;;;;;;;3.70;3.60;;;31.90;59.30;;;;;;4995368;28;20793;-77
2023/06/19 10:36:25;;;;;;;3.63;3.53;;;32.40;57.60;;;;;;4996782;28;20267;-77
2023/06/19 10:38:51;;;;;;;3.70;3.60;;;32.90;56.60;;;;;;4995767;28;20199;-77
2023/06/19 10:41:22;;;;;;;4.07;3.77;;;32.90;55.50;;;;;;4984467;28;20795;-76
2023/06/19 10:44:04;;;;;;;3.80;3.80;;;32.20;55.40;;;;;;4996820;28;20980;-77
2023/06/19 10:46:32;;;;;;;5.13;3.70;;;32.90;54.80;;;;;;4994041;28;20801;-76
2023/06/19 10:49:04;;;;;;;3.73;3.73;;;33.40;53.40;;;;;;4998158;28;20459;-76
2023/06/19 10:51:39;;;;;;;3.90;3.80;;;34.10;52.10;;;;;;4992083;28;20547;-77
2023/06/19 10:54:06;;;;;;;4.20;4.00;;;34.40;51.40;;;;;;4976704;28;20795;-75
2023/06/19 10:56:32;;;;;;;3.70;3.70;;;34.60;51.00;;;;;;4994081;28;20436;-77
2023/06/19 10:59:02;;;;;;;5.17;4.83;;;34.20;50.60;;;;;;4984346;28;20924;-77
2023/06/19 11:01:44;;;;;;;4.10;3.80;;;34.00;50.80;;;;;;4989448;28;20749;-77
2023/06/19 11:04:14;;;;;;;4.23;3.97;;;33.50;51.30;;;;;;4996292;28;20497;-77
2023/06/19 11:06:40;;;;;;;4.40;4.20;;;33.60;51.30;;;;;;5001910;28;20707;-76
2023/06/19 11:09:07;;;;;;;3.80;3.70;;;33.80;51.20;;;;;;5005146;28;20435;-80
2023/06/19 11:11:41;;;;;;;4.30;4.20;;;33.70;51.70;;;;;;4984563;28;20439;-80
2023/06/19 11:14:08;;;;;;;3.90;3.80;;;33.30;52.10;;;;;;4998301;28;20848;-80
2023/06/19 11:16:34;;;;;;;4.17;3.97;;;33.20;51.90;;;;;;5000050;28;20814;-81
2023/06/19 11:19:01;;;;;;;4.03;3.90;;;33.20;51.90;;;;;;5006071;28;20515;-83
2023/06/19 11:21:38;;;;;;;4.10;3.77;;;33.40;51.60;;;;;;5010092;28;20884;-77
2023/06/19 11:24:11;;;;;;;4.77;4.60;;;33.40;51.30;;;;;;4999185;28;20575;-75
2023/06/19 11:26:49;;;;;;;4.13;4.03;;;32.90;51.20;;;;;;4992708;28;20962;-76
2023/06/19 11:29:28;;;;;;;4.43;4.33;;;32.60;49.80;;;;;;5000689;28;20511;-76
2023/06/19 11:32:06;;;;;;;3.90;3.80;;;32.30;50.20;;;;;;4993742;28;20446;-78
2023/06/19 11:34:35;;;;;;;5.07;4.80;;;32.40;50.40;;;;;;4994914;28;20663;-76
2023/06/19 11:37:00;;;;;;;4.50;4.40;;;33.50;50.30;;;;;;4995816;28;20522;-76
2023/06/19 11:39:27;;;;;;;4.00;3.90;;;34.40;49.30;;;;;;4978363;28;20886;-77
2023/06/19 11:41:53;;;;;;;4.73;4.53;;;34.70;49.10;;;;;;4976301;28;20197;-77
2023/06/19 11:44:18;;;;;;;5.40;4.60;;;34.80;48.10;;;;;;4998879;28;20424;-76
2023/06/19 11:46:44;;;;;;;4.00;3.90;;;34.80;48.30;;;;;;4998535;28;20605;-76
2023/06/19 11:49:13;;;;;;;5.53;5.17;;;35.30;48.00;;;;;;4977306;28;20238;-76
2023/06/19 11:51:40;;;;;;;4.30;4.20;;;35.60;47.30;;;;;;4997873;28;20196;-77
2023/06/19 11:54:11;;;;;;;3.93;3.93;;;36.10;46.50;;;;;;4998062;28;21198;-75
2023/06/19 11:56:40;;;;;;;8.77;4.60;;;35.80;46.20;;;;;;4993648;28;20955;-76
2023/06/19 11:59:06;;;;;;;4.70;4.60;;;35.10;46.30;;;;;;4998722;28;20432;-75
2023/06/19 12:01:33;;;;;;;4.57;4.47;;;35.10;46.20;;;;;;4990861;28;20435;-77
2023/06/19 12:04:00;;;;;;;5.57;5.03;;;35.60;46.20;;;;;;4994759;28;20500;-77
2023/06/19 12:06:26;;;;;;;4.00;4.00;;;36.60;45.80;;;;;;4993177;28;20888;-76
2023/06/19 12:08:51;;;;;;;4.30;4.20;;;36.50;45.30;;;;;;4993870;28;20475;-78
2023/06/19 12:11:17;;;;;;;5.37;4.97;;;36.50;44.80;;;;;;4974612;28;20298;-77
2023/06/19 12:13:43;;;;;;;4.50;4.33;;;37.00;44.40;;;;;;5003846;28;20277;-76
2023/06/19 12:16:10;;;;;;;4.40;4.30;;;37.80;44.00;;;;;;4990334;28;20251;-76
2023/06/19 12:18:35;;;;;;;4.90;4.80;;;37.10;43.50;;;;;;4999024;28;20620;-77
2023/06/19 12:21:01;;;;;;;5.60;5.10;;;36.30;44.20;;;;;;4996433;28;20486;-77
2023/06/19 12:23:27;;;;;;;4.77;4.57;;;36.60;44.20;;;;;;4983024;28;20215;-77
2023/06/19 12:25:52;;;;;;;5.00;4.80;;;37.30;43.70;;;;;;4990943;28;20300;-77
2023/06/19 12:28:18;;;;;;;4.53;4.43;;;37.00;43.60;;;;;;4986584;28;20203;-77
2023/06/19 12:30:45;;;;;;;5.10;4.80;;;37.30;43.20;;;;;;4990304;28;20223;-75
2023/06/19 12:33:11;;;;;;;5.70;5.53;;;37.20;42.70;;;;;;4979340;28;20773;-77
2023/06/19 12:35:43;;;;;;;4.40;4.30;;;36.70;42.70;;;;;;4998395;28;20844;-77
2023/06/19 12:38:09;;;;;;;4.30;4.20;;;36.70;42.90;;;;;;4981855;28;20427;-77
2023/06/19 12:40:36;;;;;;;5.60;5.37;;;37.00;42.60;;;;;;4970204;28;21025;-77
2023/06/19 12:43:02;;;;;;;4.60;4.30;;;36.60;42.90;;;;;;5003538;28;20414;-77
2023/06/19 12:45:28;;;;;;;4.30;4.20;;;36.80;43.10;;;;;;4987863;28;20439;-76
2023/06/19 12:47:53;;;;;;;4.53;4.30;;;36.90;42.70;;;;;;5000323;28;20428;-76